sensor_id;sensor_type;location;lat;lon;timestamp;P1;durP1;ratioP1;P2;durP2;ratioP2
14584;SDS011;7379;51.506;11.876;2023-08-20T00:00:20;7.93;;;6.25;;
14584;SDS011;7379;51.506;11.876;2023-08-20T00:02:47;7.13;;;5.93;;
14584;SDS011;7379;51.506;11.876;2023-08-20T00:05:21;7.28;;;5.70;;
14584;SDS011;7379;51.506;11.876;2023-08-20T00:07:48;7.68;;;5.45;;
14584;SDS011;7379;51.506;11.876;2023-08-20T00:10:15;6.43;;;5.72;;
14584;SDS011;7379;51.506;11.876;2023-08-20T00:12:43;10.85;;;5.82;;
14584;SDS011;7379;51.506;11.876;2023-08-20T00:15:09;6.68;;;5.82;;
14584;SDS011;7379;51.506;11.876;2023-08-20T00:17:37;8.07;;;5.93;;
14584;SDS011;7379;51.506;11.876;2023-08-20T00:20:05;8.23;;;5.68;;
14584;SDS011;7379;51.506;11.876;2023-08-20T00:22:35;6.75;;;5.65;;
14584;SDS011;7379;51.506;11.876;2023-08-20T00:25:02;6.78;;;5.47;;
14584;SDS011;7379;51.506;11.876;2023-08-20T00:27:36;7.75;;;5.75;;
14584;SDS011;7379;51.506;11.876;2023-08-20T00:30:06;5.85;;;5.32;;
14584;SDS011;7379;51.506;11.876;2023-08-20T00:32:34;8.07;;;6.00;;
14584;SDS011;7379;51.506;11.876;2023-08-20T00:35:00;6.35;;;5.78;;
14584;SDS011;7379;51.506;11.876;2023-08-20T00:37:28;6.75;;;5.85;;
14584;SDS011;7379;51.506;11.876;2023-08-20T00:39:55;10.23;;;6.15;;
14584;SDS011;7379;51.506;11.876;2023-08-20T00:42:23;6.00;;;5.40;;
14584;SDS011;7379;51.506;11.876;2023-08-20T00:44:50;6.43;;;5.80;;
14584;SDS011;7379;51.506;11.876;2023-08-20T00:47:18;6.30;;;5.70;;
14584;SDS011;7379;51.506;11.876;2023-08-20T00:49:46;7.20;;;5.60;;
14584;SDS011;7379;51.506;11.876;2023-08-20T00:52:14;7.30;;;5.53;;
14584;SDS011;7379;51.506;11.876;2023-08-20T00:54:43;6.80;;;5.55;;
14584;SDS011;7379;51.506;11.876;2023-08-20T00:57:11;6.28;;;5.65;;
14584;SDS011;7379;51.506;11.876;2023-08-20T00:59:40;6.30;;;5.70;;
14584;SDS011;7379;51.506;11.876;2023-08-20T01:02:07;6.13;;;5.40;;
14584;SDS011;7379;51.506;11.876;2023-08-20T01:04:35;6.40;;;5.80;;
14584;SDS011;7379;51.506;11.876;2023-08-20T01:07:04;5.88;;;5.38;;
14584;SDS011;7379;51.506;11.876;2023-08-20T01:09:43;6.82;;;5.72;;
14584;SDS011;7379;51.506;11.876;2023-08-20T01:12:16;6.18;;;5.53;;
14584;SDS011;7379;51.506;11.876;2023-08-20T01:14:43;6.25;;;5.60;;
14584;SDS011;7379;51.506;11.876;2023-08-20T01:17:10;5.88;;;5.10;;
14584;SDS011;7379;51.506;11.876;2023-08-20T01:19:38;6.60;;;5.90;;
14584;SDS011;7379;51.506;11.876;2023-08-20T01:22:08;6.10;;;5.50;;
14584;SDS011;7379;51.506;11.876;2023-08-20T01:24:46;6.45;;;5.28;;
14584;SDS011;7379;51.506;11.876;2023-08-20T01:27:24;6.45;;;5.72;;
14584;SDS011;7379;51.506;11.876;2023-08-20T01:29:58;7.28;;;5.60;;
14584;SDS011;7379;51.506;11.876;2023-08-20T01:32:25;6.50;;;5.50;;
14584;SDS011;7379;51.506;11.876;2023-08-20T01:34:53;5.72;;;5.10;;
14584;SDS011;7379;51.506;11.876;2023-08-20T01:37:20;6.13;;;5.55;;
14584;SDS011;7379;51.506;11.876;2023-08-20T01:39:48;6.22;;;5.63;;
14584;SDS011;7379;51.506;11.876;2023-08-20T01:42:14;6.28;;;5.60;;
14584;SDS011;7379;51.506;11.876;2023-08-20T01:44:41;7.55;;;5.65;;
14584;SDS011;7379;51.506;11.876;2023-08-20T01:47:09;7.32;;;5.55;;
14584;SDS011;7379;51.506;11.876;2023-08-20T01:49:36;6.50;;;5.75;;
14584;SDS011;7379;51.506;11.876;2023-08-20T01:52:03;6.43;;;5.70;;
14584;SDS011;7379;51.506;11.876;2023-08-20T01:54:30;6.97;;;5.82;;
14584;SDS011;7379;51.506;11.876;2023-08-20T01:56:56;6.60;;;5.95;;
14584;SDS011;7379;51.506;11.876;2023-08-20T01:59:23;6.35;;;5.85;;
14584;SDS011;7379;51.506;11.876;2023-08-20T02:01:50;6.20;;;5.60;;
14584;SDS011;7379;51.506;11.876;2023-08-20T02:04:18;6.60;;;6.00;;
14584;SDS011;7379;51.506;11.876;2023-08-20T02:06:45;6.47;;;5.78;;
14584;SDS011;7379;51.506;11.876;2023-08-20T02:09:11;6.70;;;6.00;;
14584;SDS011;7379;51.506;11.876;2023-08-20T02:11:38;6.03;;;5.53;;
14584;SDS011;7379;51.506;11.876;2023-08-20T02:14:05;6.80;;;6.10;;
14584;SDS011;7379;51.506;11.876;2023-08-20T02:16:31;7.38;;;6.05;;
14584;SDS011;7379;51.506;11.876;2023-08-20T02:18:58;6.70;;;6.00;;
14584;SDS011;7379;51.506;11.876;2023-08-20T02:21:28;8.02;;;6.35;;
14584;SDS011;7379;51.506;11.876;2023-08-20T02:23:55;7.10;;;6.40;;
14584;SDS011;7379;51.506;11.876;2023-08-20T02:26:21;7.10;;;6.32;;
14584;SDS011;7379;51.506;11.876;2023-08-20T02:28:48;6.57;;;5.97;;
14584;SDS011;7379;51.506;11.876;2023-08-20T02:31:15;6.97;;;6.35;;
14584;SDS011;7379;51.506;11.876;2023-08-20T02:33:41;6.85;;;6.25;;
14584;SDS011;7379;51.506;11.876;2023-08-20T02:36:08;7.43;;;6.53;;
14584;SDS011;7379;51.506;11.876;2023-08-20T02:38:37;7.18;;;6.47;;
14584;SDS011;7379;51.506;11.876;2023-08-20T02:41:04;7.25;;;6.65;;
14584;SDS011;7379;51.506;11.876;2023-08-20T02:43:31;7.15;;;6.45;;
14584;SDS011;7379;51.506;11.876;2023-08-20T02:45:57;7.35;;;6.65;;
14584;SDS011;7379;51.506;11.876;2023-08-20T02:48:24;9.15;;;6.53;;
14584;SDS011;7379;51.506;11.876;2023-08-20T02:50:52;7.97;;;6.72;;
14584;SDS011;7379;51.506;11.876;2023-08-20T02:53:19;7.40;;;6.70;;
14584;SDS011;7379;51.506;11.876;2023-08-20T02:55:47;8.52;;;7.25;;
14584;SDS011;7379;51.506;11.876;2023-08-20T02:58:14;8.38;;;7.57;;
14584;SDS011;7379;51.506;11.876;2023-08-20T03:00:42;7.60;;;6.88;;
14584;SDS011;7379;51.506;11.876;2023-08-20T03:03:10;7.82;;;7.13;;
14584;SDS011;7379;51.506;11.876;2023-08-20T03:05:36;8.05;;;7.25;;
14584;SDS011;7379;51.506;11.876;2023-08-20T03:08:03;7.88;;;7.18;;
14584;SDS011;7379;51.506;11.876;2023-08-20T03:10:31;8.73;;;7.93;;
14584;SDS011;7379;51.506;11.876;2023-08-20T03:12:59;8.27;;;7.20;;
14584;SDS011;7379;51.506;11.876;2023-08-20T03:15:27;8.43;;;7.63;;
14584;SDS011;7379;51.506;11.876;2023-08-20T03:17:53;9.10;;;8.00;;
14584;SDS011;7379;51.506;11.876;2023-08-20T03:20:20;8.32;;;7.53;;
14584;SDS011;7379;51.506;11.876;2023-08-20T03:22:47;9.35;;;8.48;;
14584;SDS011;7379;51.506;11.876;2023-08-20T03:25:14;9.02;;;8.13;;
14584;SDS011;7379;51.506;11.876;2023-08-20T03:27:41;9.60;;;8.57;;
14584;SDS011;7379;51.506;11.876;2023-08-20T03:30:09;9.25;;;8.32;;
14584;SDS011;7379;51.506;11.876;2023-08-20T03:32:36;9.38;;;8.38;;
14584;SDS011;7379;51.506;11.876;2023-08-20T03:35:03;9.77;;;8.68;;
14584;SDS011;7379;51.506;11.876;2023-08-20T03:37:31;9.38;;;8.48;;
14584;SDS011;7379;51.506;11.876;2023-08-20T03:39:57;9.60;;;8.65;;
14584;SDS011;7379;51.506;11.876;2023-08-20T03:42:24;10.90;;;9.80;;
14584;SDS011;7379;51.506;11.876;2023-08-20T03:44:51;10.77;;;9.77;;
14584;SDS011;7379;51.506;11.876;2023-08-20T03:47:19;11.05;;;9.40;;
14584;SDS011;7379;51.506;11.876;2023-08-20T03:49:46;10.27;;;9.38;;
14584;SDS011;7379;51.506;11.876;2023-08-20T03:52:13;13.50;;;10.13;;
14584;SDS011;7379;51.506;11.876;2023-08-20T03:54:40;10.77;;;9.70;;
14584;SDS011;7379;51.506;11.876;2023-08-20T03:57:07;11.27;;;10.23;;
14584;SDS011;7379;51.506;11.876;2023-08-20T03:59:33;11.45;;;10.35;;
14584;SDS011;7379;51.506;11.876;2023-08-20T04:02:00;10.68;;;9.63;;
14584;SDS011;7379;51.506;11.876;2023-08-20T04:04:28;10.38;;;9.38;;
14584;SDS011;7379;51.506;11.876;2023-08-20T04:06:55;12.13;;;10.82;;
14584;SDS011;7379;51.506;11.876;2023-08-20T04:09:22;10.57;;;9.57;;
14584;SDS011;7379;51.506;11.876;2023-08-20T04:11:49;11.38;;;10.27;;
14584;SDS011;7379;51.506;11.876;2023-08-20T04:14:15;11.90;;;10.80;;
14584;SDS011;7379;51.506;11.876;2023-08-20T04:16:42;12.02;;;10.90;;
14584;SDS011;7379;51.506;11.876;2023-08-20T04:19:09;12.73;;;11.43;;
14584;SDS011;7379;51.506;11.876;2023-08-20T04:21:37;13.02;;;11.75;;
14584;SDS011;7379;51.506;11.876;2023-08-20T04:24:04;15.27;;;13.82;;
14584;SDS011;7379;51.506;11.876;2023-08-20T04:26:31;14.40;;;13.00;;
14584;SDS011;7379;51.506;11.876;2023-08-20T04:28:57;16.08;;;13.75;;
14584;SDS011;7379;51.506;11.876;2023-08-20T04:31:25;14.77;;;13.35;;
14584;SDS011;7379;51.506;11.876;2023-08-20T04:33:52;16.30;;;14.70;;
14584;SDS011;7379;51.506;11.876;2023-08-20T04:36:19;16.70;;;15.13;;
14584;SDS011;7379;51.506;11.876;2023-08-20T04:38:47;15.65;;;14.05;;
14584;SDS011;7379;51.506;11.876;2023-08-20T04:41:13;15.55;;;14.05;;
14584;SDS011;7379;51.506;11.876;2023-08-20T04:43:40;15.77;;;14.30;;
14584;SDS011;7379;51.506;11.876;2023-08-20T04:46:07;16.73;;;15.00;;
14584;SDS011;7379;51.506;11.876;2023-08-20T04:48:34;17.42;;;15.73;;
14584;SDS011;7379;51.506;11.876;2023-08-20T04:51:00;16.58;;;14.88;;
14584;SDS011;7379;51.506;11.876;2023-08-20T04:53:27;16.30;;;14.68;;
14584;SDS011;7379;51.506;11.876;2023-08-20T04:55:56;17.40;;;15.65;;
14584;SDS011;7379;51.506;11.876;2023-08-20T04:58:24;16.85;;;15.25;;
14584;SDS011;7379;51.506;11.876;2023-08-20T05:00:51;16.33;;;14.68;;
14584;SDS011;7379;51.506;11.876;2023-08-20T05:03:17;16.20;;;14.60;;
14584;SDS011;7379;51.506;11.876;2023-08-20T05:05:48;17.00;;;15.27;;
14584;SDS011;7379;51.506;11.876;2023-08-20T05:08:15;16.40;;;14.90;;
14584;SDS011;7379;51.506;11.876;2023-08-20T05:10:41;16.23;;;14.73;;
14584;SDS011;7379;51.506;11.876;2023-08-20T05:13:10;16.98;;;15.32;;
14584;SDS011;7379;51.506;11.876;2023-08-20T05:15:36;17.35;;;15.65;;
14584;SDS011;7379;51.506;11.876;2023-08-20T05:18:03;16.73;;;15.13;;
14584;SDS011;7379;51.506;11.876;2023-08-20T05:20:30;16.40;;;14.90;;
14584;SDS011;7379;51.506;11.876;2023-08-20T05:22:57;15.60;;;14.18;;
14584;SDS011;7379;51.506;11.876;2023-08-20T05:25:24;16.63;;;15.02;;
14584;SDS011;7379;51.506;11.876;2023-08-20T05:27:50;16.33;;;14.80;;
14584;SDS011;7379;51.506;11.876;2023-08-20T05:30:18;16.98;;;15.38;;
14584;SDS011;7379;51.506;11.876;2023-08-20T05:32:45;17.10;;;15.40;;
14584;SDS011;7379;51.506;11.876;2023-08-20T05:35:12;17.13;;;15.52;;
14584;SDS011;7379;51.506;11.876;2023-08-20T05:37:38;16.83;;;15.10;;
14584;SDS011;7379;51.506;11.876;2023-08-20T05:40:06;17.50;;;15.90;;
14584;SDS011;7379;51.506;11.876;2023-08-20T05:42:34;17.00;;;15.30;;
14584;SDS011;7379;51.506;11.876;2023-08-20T05:45:00;17.85;;;16.05;;
14584;SDS011;7379;51.506;11.876;2023-08-20T05:47:28;16.73;;;15.02;;
14584;SDS011;7379;51.506;11.876;2023-08-20T05:49:55;17.70;;;15.95;;
14584;SDS011;7379;51.506;11.876;2023-08-20T05:52:22;17.23;;;15.65;;
14584;SDS011;7379;51.506;11.876;2023-08-20T05:54:49;17.33;;;15.73;;
14584;SDS011;7379;51.506;11.876;2023-08-20T05:57:15;16.38;;;14.85;;
14584;SDS011;7379;51.506;11.876;2023-08-20T05:59:42;16.42;;;14.93;;
14584;SDS011;7379;51.506;11.876;2023-08-20T06:02:09;16.92;;;15.43;;
14584;SDS011;7379;51.506;11.876;2023-08-20T06:04:37;16.33;;;14.82;;
14584;SDS011;7379;51.506;11.876;2023-08-20T06:07:04;16.17;;;14.48;;
14584;SDS011;7379;51.506;11.876;2023-08-20T06:09:30;16.02;;;14.43;;
14584;SDS011;7379;51.506;11.876;2023-08-20T06:11:57;16.13;;;14.52;;
14584;SDS011;7379;51.506;11.876;2023-08-20T06:14:24;16.02;;;14.32;;
14584;SDS011;7379;51.506;11.876;2023-08-20T06:16:50;16.08;;;14.57;;
14584;SDS011;7379;51.506;11.876;2023-08-20T06:19:17;14.80;;;13.48;;
14584;SDS011;7379;51.506;11.876;2023-08-20T06:21:45;15.85;;;14.45;;
14584;SDS011;7379;51.506;11.876;2023-08-20T06:24:12;16.17;;;14.57;;
14584;SDS011;7379;51.506;11.876;2023-08-20T06:26:38;16.17;;;14.52;;
14584;SDS011;7379;51.506;11.876;2023-08-20T06:29:05;15.95;;;14.35;;
14584;SDS011;7379;51.506;11.876;2023-08-20T06:31:32;16.42;;;14.93;;
14584;SDS011;7379;51.506;11.876;2023-08-20T06:33:59;15.93;;;14.38;;
14584;SDS011;7379;51.506;11.876;2023-08-20T06:36:25;15.70;;;14.30;;
14584;SDS011;7379;51.506;11.876;2023-08-20T06:38:53;15.55;;;14.15;;
14584;SDS011;7379;51.506;11.876;2023-08-20T06:41:20;15.80;;;14.20;;
14584;SDS011;7379;51.506;11.876;2023-08-20T06:43:47;15.20;;;13.70;;
14584;SDS011;7379;51.506;11.876;2023-08-20T06:46:13;15.32;;;13.82;;
14584;SDS011;7379;51.506;11.876;2023-08-20T06:48:41;15.60;;;14.07;;
14584;SDS011;7379;51.506;11.876;2023-08-20T06:51:08;15.13;;;13.60;;
14584;SDS011;7379;51.506;11.876;2023-08-20T06:53:37;16.38;;;14.88;;
14584;SDS011;7379;51.506;11.876;2023-08-20T06:56:05;14.95;;;13.52;;
14584;SDS011;7379;51.506;11.876;2023-08-20T06:58:33;16.10;;;14.55;;
14584;SDS011;7379;51.506;11.876;2023-08-20T07:01:00;14.90;;;13.60;;
14584;SDS011;7379;51.506;11.876;2023-08-20T07:03:32;15.43;;;13.93;;
14584;SDS011;7379;51.506;11.876;2023-08-20T07:05:59;14.90;;;13.55;;
14584;SDS011;7379;51.506;11.876;2023-08-20T07:08:25;14.70;;;13.38;;
14584;SDS011;7379;51.506;11.876;2023-08-20T07:10:52;15.75;;;14.25;;
14584;SDS011;7379;51.506;11.876;2023-08-20T07:13:20;15.57;;;14.18;;
14584;SDS011;7379;51.506;11.876;2023-08-20T07:15:48;15.82;;;14.23;;
14584;SDS011;7379;51.506;11.876;2023-08-20T07:18:15;15.98;;;14.43;;
14584;SDS011;7379;51.506;11.876;2023-08-20T07:20:41;14.55;;;13.23;;
14584;SDS011;7379;51.506;11.876;2023-08-20T07:23:08;15.30;;;13.80;;
14584;SDS011;7379;51.506;11.876;2023-08-20T07:25:35;15.90;;;14.30;;
14584;SDS011;7379;51.506;11.876;2023-08-20T07:28:03;15.48;;;13.98;;
14584;SDS011;7379;51.506;11.876;2023-08-20T07:30:32;14.55;;;13.20;;
14584;SDS011;7379;51.506;11.876;2023-08-20T07:32:58;15.35;;;13.82;;
14584;SDS011;7379;51.506;11.876;2023-08-20T07:35:25;15.63;;;14.13;;
14584;SDS011;7379;51.506;11.876;2023-08-20T07:37:52;14.55;;;13.15;;
14584;SDS011;7379;51.506;11.876;2023-08-20T07:40:19;14.10;;;12.70;;
14584;SDS011;7379;51.506;11.876;2023-08-20T07:42:46;15.68;;;14.10;;
14584;SDS011;7379;51.506;11.876;2023-08-20T07:45:12;13.68;;;12.35;;
14584;SDS011;7379;51.506;11.876;2023-08-20T07:47:40;13.48;;;12.18;;
14584;SDS011;7379;51.506;11.876;2023-08-20T07:50:07;13.23;;;12.02;;
14584;SDS011;7379;51.506;11.876;2023-08-20T07:52:34;13.68;;;12.27;;
14584;SDS011;7379;51.506;11.876;2023-08-20T07:55:01;13.35;;;12.15;;
14584;SDS011;7379;51.506;11.876;2023-08-20T07:57:28;13.38;;;12.18;;
14584;SDS011;7379;51.506;11.876;2023-08-20T07:59:54;13.90;;;12.50;;
14584;SDS011;7379;51.506;11.876;2023-08-20T08:02:21;14.77;;;13.27;;
14584;SDS011;7379;51.506;11.876;2023-08-20T08:04:49;15.00;;;13.48;;
14584;SDS011;7379;51.506;11.876;2023-08-20T08:07:16;14.32;;;12.93;;
14584;SDS011;7379;51.506;11.876;2023-08-20T08:09:43;14.90;;;13.40;;
14584;SDS011;7379;51.506;11.876;2023-08-20T08:12:10;14.18;;;12.82;;
14584;SDS011;7379;51.506;11.876;2023-08-20T08:14:37;13.90;;;12.50;;
14584;SDS011;7379;51.506;11.876;2023-08-20T08:17:04;13.70;;;12.40;;
14584;SDS011;7379;51.506;11.876;2023-08-20T08:19:32;12.90;;;11.75;;
14584;SDS011;7379;51.506;11.876;2023-08-20T08:22:00;13.00;;;11.80;;
14584;SDS011;7379;51.506;11.876;2023-08-20T08:24:28;12.48;;;11.15;;
14584;SDS011;7379;51.506;11.876;2023-08-20T08:26:55;13.27;;;11.98;;
14584;SDS011;7379;51.506;11.876;2023-08-20T08:29:21;12.27;;;11.18;;
14584;SDS011;7379;51.506;11.876;2023-08-20T08:31:48;12.63;;;11.43;;
14584;SDS011;7379;51.506;11.876;2023-08-20T08:34:15;14.40;;;11.55;;
14584;SDS011;7379;51.506;11.876;2023-08-20T08:36:43;13.93;;;12.52;;
14584;SDS011;7379;51.506;11.876;2023-08-20T08:39:11;13.30;;;12.00;;
14584;SDS011;7379;51.506;11.876;2023-08-20T08:41:38;12.75;;;11.55;;
14584;SDS011;7379;51.506;11.876;2023-08-20T08:44:07;12.98;;;11.68;;
14584;SDS011;7379;51.506;11.876;2023-08-20T08:46:35;12.27;;;11.07;;
14584;SDS011;7379;51.506;11.876;2023-08-20T08:49:04;12.75;;;11.57;;
14584;SDS011;7379;51.506;11.876;2023-08-20T08:51:31;12.45;;;11.25;;
14584;SDS011;7379;51.506;11.876;2023-08-20T08:54:00;12.70;;;11.55;;
14584;SDS011;7379;51.506;11.876;2023-08-20T08:56:29;12.60;;;11.30;;
14584;SDS011;7379;51.506;11.876;2023-08-20T08:58:56;14.13;;;11.18;;
14584;SDS011;7379;51.506;11.876;2023-08-20T09:01:23;11.85;;;10.75;;
14584;SDS011;7379;51.506;11.876;2023-08-20T09:03:50;12.55;;;10.95;;
14584;SDS011;7379;51.506;11.876;2023-08-20T09:06:17;12.00;;;10.80;;
14584;SDS011;7379;51.506;11.876;2023-08-20T09:08:43;12.70;;;10.88;;
14584;SDS011;7379;51.506;11.876;2023-08-20T09:11:10;12.00;;;10.98;;
14584;SDS011;7379;51.506;11.876;2023-08-20T09:13:38;11.85;;;10.75;;
14584;SDS011;7379;51.506;11.876;2023-08-20T09:16:06;11.13;;;9.95;;
14584;SDS011;7379;51.506;11.876;2023-08-20T09:18:37;10.55;;;9.55;;
14584;SDS011;7379;51.506;11.876;2023-08-20T09:21:06;11.05;;;9.95;;
14584;SDS011;7379;51.506;11.876;2023-08-20T09:23:33;11.20;;;10.10;;
14584;SDS011;7379;51.506;11.876;2023-08-20T09:26:01;11.38;;;10.20;;
14584;SDS011;7379;51.506;11.876;2023-08-20T09:28:28;11.82;;;10.70;;
14584;SDS011;7379;51.506;11.876;2023-08-20T09:31:07;10.30;;;9.40;;
14584;SDS011;7379;51.506;11.876;2023-08-20T09:33:34;10.23;;;9.23;;
14584;SDS011;7379;51.506;11.876;2023-08-20T09:36:02;10.57;;;9.63;;
14584;SDS011;7379;51.506;11.876;2023-08-20T09:38:29;11.25;;;10.10;;
14584;SDS011;7379;51.506;11.876;2023-08-20T09:40:56;11.05;;;9.95;;
14584;SDS011;7379;51.506;11.876;2023-08-20T09:43:23;10.27;;;9.27;;
14584;SDS011;7379;51.506;11.876;2023-08-20T09:45:53;10.80;;;9.65;;
14584;SDS011;7379;51.506;11.876;2023-08-20T09:48:23;10.77;;;9.88;;
14584;SDS011;7379;51.506;11.876;2023-08-20T09:50:53;10.55;;;9.55;;
14584;SDS011;7379;51.506;11.876;2023-08-20T09:53:25;10.27;;;9.35;;
14584;SDS011;7379;51.506;11.876;2023-08-20T09:55:53;9.98;;;9.07;;
14584;SDS011;7379;51.506;11.876;2023-08-20T09:58:22;11.20;;;9.75;;
14584;SDS011;7379;51.506;11.876;2023-08-20T10:00:51;10.65;;;9.68;;
14584;SDS011;7379;51.506;11.876;2023-08-20T10:03:18;10.43;;;9.52;;
14584;SDS011;7379;51.506;11.876;2023-08-20T10:05:49;10.15;;;9.23;;
14584;SDS011;7379;51.506;11.876;2023-08-20T10:08:16;10.98;;;9.98;;
14584;SDS011;7379;51.506;11.876;2023-08-20T10:10:43;10.60;;;9.60;;
14584;SDS011;7379;51.506;11.876;2023-08-20T10:13:11;10.70;;;9.45;;
14584;SDS011;7379;51.506;11.876;2023-08-20T10:15:39;10.05;;;9.15;;
14584;SDS011;7379;51.506;11.876;2023-08-20T10:18:07;10.25;;;9.35;;
14584;SDS011;7379;51.506;11.876;2023-08-20T10:20:34;10.40;;;9.30;;
14584;SDS011;7379;51.506;11.876;2023-08-20T10:23:05;10.63;;;9.48;;
14584;SDS011;7379;51.506;11.876;2023-08-20T10:25:32;9.43;;;8.52;;
14584;SDS011;7379;51.506;11.876;2023-08-20T10:28:11;10.35;;;9.45;;
14584;SDS011;7379;51.506;11.876;2023-08-20T10:30:54;10.75;;;9.73;;
14584;SDS011;7379;51.506;11.876;2023-08-20T10:33:30;10.20;;;9.27;;
14584;SDS011;7379;51.506;11.876;2023-08-20T10:35:57;10.68;;;9.68;;
14584;SDS011;7379;51.506;11.876;2023-08-20T10:38:36;10.40;;;9.50;;
14584;SDS011;7379;51.506;11.876;2023-08-20T10:41:05;10.27;;;9.27;;
14584;SDS011;7379;51.506;11.876;2023-08-20T10:43:34;10.27;;;9.35;;
14584;SDS011;7379;51.506;11.876;2023-08-20T10:46:03;10.32;;;9.35;;
14584;SDS011;7379;51.506;11.876;2023-08-20T10:48:31;11.15;;;10.05;;
14584;SDS011;7379;51.506;11.876;2023-08-20T10:50:59;10.00;;;9.10;;
14584;SDS011;7379;51.506;11.876;2023-08-20T10:53:40;10.35;;;9.45;;
14584;SDS011;7379;51.506;11.876;2023-08-20T10:56:13;10.95;;;9.85;;
14584;SDS011;7379;51.506;11.876;2023-08-20T10:58:41;10.70;;;9.63;;
14584;SDS011;7379;51.506;11.876;2023-08-20T11:01:18;10.60;;;9.50;;
14584;SDS011;7379;51.506;11.876;2023-08-20T11:03:46;10.10;;;9.20;;
14584;SDS011;7379;51.506;11.876;2023-08-20T11:06:14;10.68;;;9.63;;
14584;SDS011;7379;51.506;11.876;2023-08-20T11:08:43;10.13;;;9.25;;
14584;SDS011;7379;51.506;11.876;2023-08-20T11:11:10;10.90;;;9.32;;
14584;SDS011;7379;51.506;11.876;2023-08-20T11:13:37;10.13;;;9.30;;
14584;SDS011;7379;51.506;11.876;2023-08-20T11:16:05;10.10;;;9.27;;
14584;SDS011;7379;51.506;11.876;2023-08-20T11:18:33;10.80;;;9.70;;
14584;SDS011;7379;51.506;11.876;2023-08-20T11:21:00;10.00;;;9.05;;
14584;SDS011;7379;51.506;11.876;2023-08-20T11:23:28;10.48;;;9.48;;
14584;SDS011;7379;51.506;11.876;2023-08-20T11:25:57;10.30;;;9.43;;
14584;SDS011;7379;51.506;11.876;2023-08-20T11:28:25;10.00;;;9.10;;
14584;SDS011;7379;51.506;11.876;2023-08-20T11:30:52;10.02;;;9.13;;
14584;SDS011;7379;51.506;11.876;2023-08-20T11:33:19;11.10;;;9.95;;
14584;SDS011;7379;51.506;11.876;2023-08-20T11:35:47;10.52;;;9.52;;
14584;SDS011;7379;51.506;11.876;2023-08-20T11:38:14;10.57;;;9.60;;
14584;SDS011;7379;51.506;11.876;2023-08-20T11:40:41;10.13;;;9.23;;
14584;SDS011;7379;51.506;11.876;2023-08-20T11:43:09;10.05;;;9.05;;
14584;SDS011;7379;51.506;11.876;2023-08-20T11:45:43;10.23;;;9.35;;
14584;SDS011;7379;51.506;11.876;2023-08-20T11:48:14;9.93;;;9.02;;
14584;SDS011;7379;51.506;11.876;2023-08-20T11:50:41;10.27;;;9.27;;
14584;SDS011;7379;51.506;11.876;2023-08-20T11:53:08;9.98;;;9.07;;
14584;SDS011;7379;51.506;11.876;2023-08-20T11:55:37;10.25;;;9.35;;
14584;SDS011;7379;51.506;11.876;2023-08-20T11:58:09;9.52;;;8.63;;
14584;SDS011;7379;51.506;11.876;2023-08-20T12:00:37;10.07;;;9.18;;
14584;SDS011;7379;51.506;11.876;2023-08-20T12:03:04;9.70;;;8.77;;
14584;SDS011;7379;51.506;11.876;2023-08-20T12:05:31;9.88;;;8.98;;
14584;SDS011;7379;51.506;11.876;2023-08-20T12:07:58;9.90;;;9.00;;
14584;SDS011;7379;51.506;11.876;2023-08-20T12:10:27;9.77;;;8.98;;
14584;SDS011;7379;51.506;11.876;2023-08-20T12:12:55;9.60;;;8.60;;
14584;SDS011;7379;51.506;11.876;2023-08-20T12:15:24;9.93;;;8.93;;
14584;SDS011;7379;51.506;11.876;2023-08-20T12:17:58;9.45;;;8.65;;
14584;SDS011;7379;51.506;11.876;2023-08-20T12:20:28;9.77;;;8.88;;
14584;SDS011;7379;51.506;11.876;2023-08-20T12:22:57;9.48;;;8.50;;
14584;SDS011;7379;51.506;11.876;2023-08-20T12:25:25;9.00;;;8.20;;
14584;SDS011;7379;51.506;11.876;2023-08-20T12:27:52;9.43;;;8.52;;
14584;SDS011;7379;51.506;11.876;2023-08-20T12:30:19;9.30;;;8.50;;
14584;SDS011;7379;51.506;11.876;2023-08-20T12:32:47;8.93;;;8.20;;
14584;SDS011;7379;51.506;11.876;2023-08-20T12:35:14;9.82;;;8.68;;
14584;SDS011;7379;51.506;11.876;2023-08-20T12:37:41;9.57;;;8.68;;
14584;SDS011;7379;51.506;11.876;2023-08-20T12:40:08;9.07;;;8.27;;
14584;SDS011;7379;51.506;11.876;2023-08-20T12:42:37;9.05;;;8.25;;
14584;SDS011;7379;51.506;11.876;2023-08-20T12:45:04;8.88;;;8.07;;
14584;SDS011;7379;51.506;11.876;2023-08-20T12:47:32;9.05;;;8.25;;
14584;SDS011;7379;51.506;11.876;2023-08-20T12:50:00;8.80;;;7.93;;
14584;SDS011;7379;51.506;11.876;2023-08-20T12:52:29;8.70;;;7.97;;
14584;SDS011;7379;51.506;11.876;2023-08-20T12:54:56;8.68;;;7.90;;
14584;SDS011;7379;51.506;11.876;2023-08-20T12:57:22;8.80;;;7.97;;
14584;SDS011;7379;51.506;11.876;2023-08-20T12:59:49;9.00;;;8.05;;
14584;SDS011;7379;51.506;11.876;2023-08-20T13:02:17;8.88;;;8.07;;
14584;SDS011;7379;51.506;11.876;2023-08-20T13:04:44;9.20;;;8.40;;
14584;SDS011;7379;51.506;11.876;2023-08-20T13:07:13;8.98;;;8.07;;
14584;SDS011;7379;51.506;11.876;2023-08-20T13:09:40;9.15;;;8.35;;
14584;SDS011;7379;51.506;11.876;2023-08-20T13:12:08;8.98;;;8.10;;
14584;SDS011;7379;51.506;11.876;2023-08-20T13:14:37;9.07;;;7.85;;
14584;SDS011;7379;51.506;11.876;2023-08-20T13:17:05;9.00;;;8.18;;
14584;SDS011;7379;51.506;11.876;2023-08-20T13:19:33;8.82;;;7.90;;
14584;SDS011;7379;51.506;11.876;2023-08-20T13:22:00;8.90;;;8.07;;
14584;SDS011;7379;51.506;11.876;2023-08-20T13:24:28;8.50;;;7.70;;
14584;SDS011;7379;51.506;11.876;2023-08-20T13:26:54;8.98;;;8.20;;
14584;SDS011;7379;51.506;11.876;2023-08-20T13:29:21;8.40;;;7.70;;
14584;SDS011;7379;51.506;11.876;2023-08-20T13:31:48;9.15;;;8.38;;
14584;SDS011;7379;51.506;11.876;2023-08-20T13:34:15;9.32;;;7.95;;
14584;SDS011;7379;51.506;11.876;2023-08-20T13:36:41;8.63;;;7.90;;
14584;SDS011;7379;51.506;11.876;2023-08-20T13:39:08;8.88;;;8.18;;
14584;SDS011;7379;51.506;11.876;2023-08-20T13:41:39;9.52;;;8.27;;
14584;SDS011;7379;51.506;11.876;2023-08-20T13:44:06;9.07;;;8.27;;
14584;SDS011;7379;51.506;11.876;2023-08-20T13:46:33;9.23;;;8.32;;
14584;SDS011;7379;51.506;11.876;2023-08-20T13:49:00;8.57;;;7.63;;
14584;SDS011;7379;51.506;11.876;2023-08-20T13:51:27;8.25;;;7.50;;
14584;SDS011;7379;51.506;11.876;2023-08-20T13:53:55;8.85;;;8.00;;
14584;SDS011;7379;51.506;11.876;2023-08-20T13:56:21;8.93;;;8.02;;
14584;SDS011;7379;51.506;11.876;2023-08-20T13:58:50;8.75;;;7.88;;
14584;SDS011;7379;51.506;11.876;2023-08-20T14:01:17;9.10;;;7.75;;
14584;SDS011;7379;51.506;11.876;2023-08-20T14:03:44;8.15;;;7.35;;
14584;SDS011;7379;51.506;11.876;2023-08-20T14:06:11;10.52;;;7.53;;
14584;SDS011;7379;51.506;11.876;2023-08-20T14:08:38;10.07;;;7.90;;
14584;SDS011;7379;51.506;11.876;2023-08-20T14:11:05;8.02;;;7.32;;
14584;SDS011;7379;51.506;11.876;2023-08-20T14:13:32;8.23;;;7.20;;
14584;SDS011;7379;51.506;11.876;2023-08-20T14:16:00;9.02;;;7.82;;
14584;SDS011;7379;51.506;11.876;2023-08-20T14:18:27;9.75;;;7.78;;
14584;SDS011;7379;51.506;11.876;2023-08-20T14:20:54;8.10;;;7.35;;
14584;SDS011;7379;51.506;11.876;2023-08-20T14:23:21;9.55;;;7.47;;
14584;SDS011;7379;51.506;11.876;2023-08-20T14:25:48;8.60;;;7.75;;
14584;SDS011;7379;51.506;11.876;2023-08-20T14:28:14;8.38;;;7.55;;
14584;SDS011;7379;51.506;11.876;2023-08-20T14:30:41;8.05;;;7.22;;
14584;SDS011;7379;51.506;11.876;2023-08-20T14:33:09;7.43;;;6.72;;
14584;SDS011;7379;51.506;11.876;2023-08-20T14:35:36;7.88;;;7.07;;
14584;SDS011;7379;51.506;11.876;2023-08-20T14:38:03;7.57;;;6.97;;